Hovedside
METAR-TAF:

METAR-TAF

Lufthavner :

Port of Spain, Trinidad, Trinidad og Tobago

breddegrad: 10-37N, lengdegrad: 061-21W, høyde over havet: 12 m

Gjeldene værobservasjon

Denne rapporten ble laget for 1 time og 2 minutter siden, klokken 08:00 UTC
Flau vind
Temperatur 25°C
Luftfuktighet 94%
Trykk 1011 hPa
Sikt 10 km eller mer
Få skyer i en høyde av 1600 ft

METAR: TTPP 180800Z 00000KT 9999 FEW016 25/24 Q1011 NOSIG

Tid: 05:02 (09:02 UTC)

Varsel

Denne rapporten ble laget for 5 timer og 2 minutter siden, klokken 04:00 UTC
Varsel gyldig fra 18. klokken 06 UTC til 19. klokken 06 UTC
Vind 5 kt fra Øst
Sikt 10 km eller mer
Få skyer i en høyde av 1800 ft
Midlertidig
fra 18. klokken 08 UTC til 18. klokken 11 UTC
Sikt: 5000 m
Brutte skyer i en høyde av 1500 ft
regnbyger
Blir
fra 18. klokken 12 UTC til 18. klokken 14 UTC
Vind 12 kt fra Øst
Spredte skyer i en høyde av 2500 ft

TAF: TTPP 180400Z 1806/1906 08005KT 9999 FEW018 TEMPO 1808/1811 5000 SHRA BKN015 BECMG 1812/1814 10012KT SCT025

Værobservasjoner og værvarsel for over 4000 flyplasser (METAR- og TAF-rapporter).

Tilgjengelige stasjoner er representert av de røde og gule prikkene på kartet.

Hold musepekeren over prikken for å se navnet på stasjonen.

Klikk så for å se værobservasjoner og -varsler.

For å forandre kartet kan du klikke på den grønne knappen med svart kryss for å zoome inn, på den grønne knappen med strek for å zoome ut, eller på de grønne pilene for å se tilstøtende kart.


METAR-TAF: